Time;durP1;ratioP1;P1;durP2;ratioP2;P2;SDS_P1;SDS_P2;PMS_P1;PMS_P2;Temp;Humidity;BMP_temperature;BMP_pressure;BME280_temperature;BME280_humidity;BME280_pressure;Samples;Min_cycle;Max_cycle;Signal;HPM_P1;HPM_P2
2021/05/01 00:01:42;;;;;;;6.38;3.38;;;4.30;99.90;;;;;;5095547;28;20196;-64
2021/05/01 00:04:08;;;;;;;9.93;3.72;;;4.20;99.90;;;;;;5100573;28;20656;-64
2021/05/01 00:06:34;;;;;;;9.88;3.38;;;4.10;99.90;;;;;;5093732;28;20189;-65
2021/05/01 00:09:00;;;;;;;8.43;3.67;;;4.10;99.90;;;;;;5096285;28;20177;-65
2021/05/01 00:11:26;;;;;;;6.63;2.97;;;4.10;99.90;;;;;;5094267;28;21270;-65
2021/05/01 00:13:57;;;;;;;6.35;2.75;;;4.00;99.90;;;;;;5094997;28;20181;-65
2021/05/01 00:16:24;;;;;;;12.57;3.33;;;4.00;99.90;;;;;;5091445;28;20166;-65
2021/05/01 00:18:51;;;;;;;5.07;2.80;;;4.00;99.90;;;;;;5099007;28;20199;-64
2021/05/01 00:21:17;;;;;;;10.68;2.85;;;3.90;99.90;;;;;;5095599;28;20169;-64
2021/05/01 00:23:43;;;;;;;7.22;3.00;;;3.90;99.90;;;;;;5094502;28;20200;-66
2021/05/01 00:26:12;;;;;;;7.32;3.10;;;3.80;99.90;;;;;;5095742;28;20165;-66
2021/05/01 00:28:39;;;;;;;6.82;3.10;;;3.80;99.90;;;;;;5097712;28;20189;-65
2021/05/01 00:31:05;;;;;;;7.32;3.30;;;3.70;99.90;;;;;;5092341;28;20200;-65
2021/05/01 00:33:31;;;;;;;8.75;3.13;;;3.70;99.90;;;;;;5097284;28;20192;-65
2021/05/01 00:35:58;;;;;;;5.07;2.90;;;3.70;99.90;;;;;;5095121;28;20212;-65
2021/05/01 00:38:24;;;;;;;10.57;2.97;;;3.60;99.90;;;;;;5098010;28;20212;-65
2021/05/01 00:40:50;;;;;;;6.97;3.75;;;3.60;99.90;;;;;;5098819;28;20539;-64
2021/05/01 00:43:16;;;;;;;6.45;3.25;;;3.50;99.90;;;;;;5095390;28;20253;-65
2021/05/01 00:45:42;;;;;;;5.90;2.83;;;3.50;99.90;;;;;;5097528;28;20181;-64
2021/05/01 00:48:09;;;;;;;5.20;3.03;;;3.50;99.90;;;;;;5094657;28;20539;-64
2021/05/01 00:50:35;;;;;;;7.93;3.30;;;3.40;99.90;;;;;;5103405;28;20181;-64
2021/05/01 00:53:01;;;;;;;5.70;2.92;;;3.40;99.90;;;;;;5093164;28;20181;-64
2021/05/01 00:55:27;;;;;;;7.97;3.22;;;3.30;99.90;;;;;;5093243;28;20177;-64
2021/05/01 00:57:53;;;;;;;7.80;2.80;;;3.30;99.90;;;;;;5091702;28;20173;-65
2021/05/01 01:02:48;;;;;;;4.45;3.10;;;3.20;99.90;;;;;;5097828;28;20173;-64
2021/05/01 01:05:14;;;;;;;12.50;3.65;;;3.20;99.90;;;;;;5098662;28;20196;-64
2021/05/01 01:07:40;;;;;;;8.43;3.30;;;3.10;99.90;;;;;;5099287;28;20181;-65
2021/05/01 01:10:07;;;;;;;9.18;4.18;;;3.10;99.90;;;;;;5090386;28;20173;-65
2021/05/01 01:12:33;;;;;;;8.13;3.50;;;3.10;99.90;;;;;;5092481;28;20181;-65
2021/05/01 01:14:59;;;;;;;6.43;3.50;;;3.00;99.90;;;;;;5076645;28;20208;-63
2021/05/01 01:17:26;;;;;;;5.93;3.42;;;3.00;99.90;;;;;;5091241;28;20188;-64
2021/05/01 01:19:53;;;;;;;5.07;3.10;;;3.00;99.90;;;;;;5097564;28;20665;-64
2021/05/01 01:22:19;;;;;;;7.72;3.58;;;2.90;99.90;;;;;;5091387;28;20169;-65
2021/05/01 01:24:45;;;;;;;5.65;3.25;;;2.90;99.90;;;;;;5093823;28;20541;-64
2021/05/01 01:27:11;;;;;;;9.68;3.40;;;2.90;99.90;;;;;;5096663;28;20553;-64
2021/05/01 01:29:38;;;;;;;7.47;3.67;;;2.80;99.90;;;;;;5092396;28;20189;-64
2021/05/01 01:32:06;;;;;;;6.47;3.58;;;2.80;99.90;;;;;;5093084;28;20181;-64
2021/05/01 01:34:32;;;;;;;5.22;3.60;;;2.80;99.90;;;;;;5093972;28;20221;-64
2021/05/01 01:36:58;;;;;;;10.32;3.60;;;2.70;99.90;;;;;;5098788;28;20166;-64
2021/05/01 01:39:24;;;;;;;6.95;3.22;;;2.70;99.90;;;;;;5092066;28;20204;-64
2021/05/01 01:41:50;;;;;;;6.18;3.22;;;2.60;99.90;;;;;;5091516;28;20176;-64
2021/05/01 01:44:17;;;;;;;5.85;3.63;;;2.60;99.90;;;;;;5094077;28;20201;-64
2021/05/01 01:46:43;;;;;;;6.53;3.22;;;2.50;99.90;;;;;;5097422;28;20878;-64
2021/05/01 01:49:09;;;;;;;7.63;3.83;;;2.50;99.90;;;;;;5089270;28;20660;-64
2021/05/01 01:51:35;;;;;;;6.07;3.38;;;2.50;99.90;;;;;;5091346;28;20180;-64
2021/05/01 01:54:01;;;;;;;8.27;3.60;;;2.50;99.90;;;;;;5090499;28;20538;-64
2021/05/01 01:56:27;;;;;;;6.30;3.85;;;2.40;99.90;;;;;;5098620;28;20185;-63
2021/05/01 01:58:54;;;;;;;13.27;3.70;;;2.40;99.90;;;;;;5091640;28;20205;-64
2021/05/01 02:01:21;;;;;;;7.25;3.60;;;2.40;99.90;;;;;;5093754;28;20680;-64
2021/05/01 02:03:47;;;;;;;6.13;3.47;;;2.40;99.90;;;;;;5090338;28;20186;-64
2021/05/01 02:06:13;;;;;;;14.70;3.78;;;2.30;99.90;;;;;;5093977;28;20169;-65
2021/05/01 02:08:39;;;;;;;6.40;3.25;;;2.30;99.90;;;;;;5091122;28;20807;-64
2021/05/01 02:11:05;;;;;;;8.43;3.75;;;2.30;99.90;;;;;;5094573;28;20172;-64
2021/05/01 02:13:31;;;;;;;10.82;3.58;;;2.20;99.90;;;;;;5090786;28;20193;-65
2021/05/01 02:15:57;;;;;;;13.52;3.65;;;2.20;99.90;;;;;;5091532;28;20177;-64
2021/05/01 02:18:23;;;;;;;10.88;3.42;;;2.20;99.90;;;;;;5097862;28;20209;-64
2021/05/01 02:20:49;;;;;;;13.30;3.65;;;2.10;99.90;;;;;;5093142;28;20169;-64
2021/05/01 02:23:16;;;;;;;8.45;3.55;;;2.10;99.90;;;;;;5090365;28;20192;-64
2021/05/01 02:25:42;;;;;;;10.35;3.70;;;2.00;99.90;;;;;;5094221;28;20182;-64
2021/05/01 02:28:08;;;;;;;7.15;3.60;;;2.00;99.90;;;;;;5089943;28;20181;-64
2021/05/01 02:30:34;;;;;;;6.90;3.58;;;1.90;99.90;;;;;;5096692;28;20185;-64
2021/05/01 02:33:00;;;;;;;9.35;3.65;;;1.90;99.90;;;;;;5090935;28;20664;-64
2021/05/01 02:35:31;;;;;;;8.70;3.90;;;1.90;99.90;;;;;;5094922;28;20224;-64
2021/05/01 02:37:57;;;;;;;7.65;4.20;;;1.90;99.90;;;;;;5091148;28;20178;-64
2021/05/01 02:40:24;;;;;;;6.45;4.03;;;1.90;99.90;;;;;;5089212;28;20224;-65
2021/05/01 02:42:50;;;;;;;9.50;3.72;;;1.90;99.90;;;;;;5090495;28;20185;-64
2021/05/01 02:45:18;;;;;;;6.18;3.80;;;1.80;99.90;;;;;;5090718;28;20174;-65
2021/05/01 02:47:44;;;;;;;6.55;3.92;;;1.80;99.90;;;;;;5096064;28;20629;-65
2021/05/01 02:50:13;;;;;;;7.07;3.97;;;1.80;99.90;;;;;;5092332;28;20184;-65
2021/05/01 02:52:40;;;;;;;8.38;4.18;;;1.70;99.90;;;;;;5098462;28;20173;-65
2021/05/01 02:55:08;;;;;;;10.20;5.32;;;1.70;99.90;;;;;;5094597;28;20189;-63
2021/05/01 02:57:34;;;;;;;8.05;4.40;;;1.70;99.90;;;;;;5091627;28;20169;-63
2021/05/01 03:00:02;;;;;;;8.10;4.38;;;1.60;99.90;;;;;;5094488;28;20200;-64
2021/05/01 03:02:29;;;;;;;6.13;3.92;;;1.60;99.90;;;;;;5091482;28;20181;-64
2021/05/01 03:04:56;;;;;;;9.63;4.20;;;1.60;99.90;;;;;;5090425;28;20174;-64
2021/05/01 03:07:23;;;;;;;7.30;4.40;;;1.50;99.90;;;;;;5098973;28;20660;-64
2021/05/01 03:09:49;;;;;;;9.00;3.85;;;1.50;99.90;;;;;;5096641;28;20651;-64
2021/05/01 03:12:15;;;;;;;5.75;3.33;;;1.50;99.90;;;;;;5092296;28;20170;-65
2021/05/01 03:14:41;;;;;;;7.18;3.50;;;1.50;99.90;;;;;;5090855;28;20204;-64
2021/05/01 03:17:07;;;;;;;8.20;3.33;;;1.50;99.90;;;;;;5093885;28;20181;-65
2021/05/01 03:19:34;;;;;;;5.95;3.55;;;1.50;99.90;;;;;;5091043;28;20228;-64
2021/05/01 03:22:00;;;;;;;10.50;4.22;;;1.50;99.90;;;;;;5076508;28;20192;-64
2021/05/01 03:24:26;;;;;;;7.13;4.38;;;1.50;99.90;;;;;;5097250;28;20182;-64
2021/05/01 03:26:52;;;;;;;14.18;4.20;;;1.40;99.90;;;;;;5091281;28;20543;-64
2021/05/01 03:29:18;;;;;;;6.70;3.90;;;1.40;99.90;;;;;;5090171;28;20481;-65
2021/05/01 03:31:44;;;;;;;12.10;3.97;;;1.40;99.90;;;;;;5092591;28;20566;-65
2021/05/01 03:34:10;;;;;;;9.27;4.18;;;1.40;99.90;;;;;;5098688;28;20212;-64
2021/05/01 03:36:36;;;;;;;8.98;3.83;;;1.30;99.90;;;;;;5099105;28;20545;-64
2021/05/01 03:39:03;;;;;;;10.23;4.13;;;1.30;99.90;;;;;;5096587;28;20209;-64
2021/05/01 03:41:29;;;;;;;9.23;4.72;;;1.30;99.90;;;;;;5088253;28;20180;-63
2021/05/01 03:43:55;;;;;;;7.35;4.10;;;1.30;99.90;;;;;;5094106;28;20173;-65
2021/05/01 03:46:22;;;;;;;8.98;4.43;;;1.40;99.90;;;;;;5093970;28;20170;-64
2021/05/01 03:48:48;;;;;;;7.20;3.90;;;1.40;99.90;;;;;;5098889;28;20181;-64
2021/05/01 03:51:14;;;;;;;8.75;4.10;;;1.30;99.90;;;;;;5094739;28;20176;-64
2021/05/01 03:53:40;;;;;;;6.90;3.85;;;1.30;99.90;;;;;;5097629;28;20669;-65
2021/05/01 03:56:06;;;;;;;8.20;4.30;;;1.30;99.90;;;;;;5098455;28;20184;-64
2021/05/01 03:58:32;;;;;;;7.20;3.95;;;1.30;99.90;;;;;;5093416;28;20173;-64
2021/05/01 04:00:59;;;;;;;8.32;3.85;;;1.40;99.90;;;;;;5104192;28;20188;-64
2021/05/01 04:03:25;;;;;;;10.82;4.05;;;1.40;99.90;;;;;;5097154;28;20538;-64
2021/05/01 04:05:51;;;;;;;9.45;4.32;;;1.50;99.90;;;;;;5098329;28;20181;-64
2021/05/01 04:08:17;;;;;;;9.48;3.75;;;1.50;99.90;;;;;;5100810;28;20178;-64
2021/05/01 04:10:43;;;;;;;7.88;4.30;;;1.60;99.90;;;;;;5098839;28;20181;-65
2021/05/01 04:13:09;;;;;;;9.48;3.80;;;1.70;99.90;;;;;;5101558;28;20176;-64
2021/05/01 04:15:36;;;;;;;12.43;4.00;;;1.80;99.90;;;;;;5095234;28;20185;-64
2021/05/01 04:18:02;;;;;;;35.17;4.85;;;1.90;99.90;;;;;;5099814;28;20188;-64
2021/05/01 04:20:28;;;;;;;21.35;5.07;;;2.00;99.90;;;;;;5101154;28;20560;-64
2021/05/01 04:22:54;;;;;;;12.27;5.82;;;2.10;99.90;;;;;;5099817;28;20178;-64
2021/05/01 04:25:20;;;;;;;8.63;4.70;;;2.20;99.90;;;;;;5096219;28;20196;-64
2021/05/01 04:27:46;;;;;;;7.47;4.50;;;2.30;99.90;;;;;;5095463;28;20196;-64
2021/05/01 04:30:13;;;;;;;10.85;4.20;;;2.40;99.90;;;;;;5099723;28;20184;-65
2021/05/01 04:32:39;;;;;;;7.43;4.40;;;2.50;99.90;;;;;;5101623;28;20193;-64
2021/05/01 04:35:06;;;;;;;11.73;4.55;;;2.60;99.90;;;;;;5095685;28;20232;-64
2021/05/01 04:37:33;;;;;;;6.35;3.88;;;2.60;99.90;;;;;;5099283;28;20185;-63
2021/05/01 04:39:59;;;;;;;6.03;3.38;;;2.70;99.90;;;;;;5097300;28;20217;-63
2021/05/01 04:42:25;;;;;;;5.88;3.30;;;2.80;99.90;;;;;;5095567;28;20192;-64
2021/05/01 04:44:51;;;;;;;10.18;3.95;;;2.90;99.90;;;;;;5096652;28;20212;-63
2021/05/01 04:47:18;;;;;;;10.05;3.65;;;3.10;99.90;;;;;;5095884;28;20176;-64
2021/05/01 04:49:44;;;;;;;8.00;3.90;;;3.20;99.90;;;;;;5097843;28;20173;-64
2021/05/01 04:52:10;;;;;;;6.85;3.55;;;3.30;99.90;;;;;;5099451;28;20177;-64
2021/05/01 04:54:36;;;;;;;6.53;3.65;;;3.50;99.90;;;;;;5097239;28;20181;-64
2021/05/01 04:57:02;;;;;;;8.88;4.00;;;3.60;99.90;;;;;;5095825;28;20522;-64
2021/05/01 04:59:28;;;;;;;5.78;3.60;;;3.70;99.90;;;;;;5100191;28;20305;-64
2021/05/01 05:01:54;;;;;;;7.57;4.03;;;3.80;99.90;;;;;;5095649;28;20168;-64
2021/05/01 05:04:20;;;;;;;9.25;2.83;;;3.90;99.90;;;;;;5095210;28;20189;-64
2021/05/01 05:06:47;;;;;;;9.63;3.80;;;4.10;99.90;;;;;;5094310;28;20173;-64
2021/05/01 05:09:13;;;;;;;9.50;3.03;;;4.20;99.90;;;;;;5094041;28;20177;-65
2021/05/01 05:11:39;;;;;;;4.00;2.35;;;4.30;99.90;;;;;;5095107;28;20185;-64
2021/05/01 05:14:05;;;;;;;12.57;2.85;;;4.40;99.90;;;;;;5092405;28;21005;-64
2021/05/01 05:16:31;;;;;;;6.57;2.72;;;4.50;99.90;;;;;;5095598;28;20195;-65
2021/05/01 05:18:57;;;;;;;9.38;3.65;;;4.60;99.90;;;;;;5097871;28;20637;-65
2021/05/01 05:21:23;;;;;;;7.10;3.20;;;4.70;99.90;;;;;;5100193;28;20684;-65
2021/05/01 05:23:50;;;;;;;5.82;2.88;;;4.90;99.90;;;;;;5094876;28;20161;-65
2021/05/01 05:26:16;;;;;;;5.68;2.58;;;4.90;99.90;;;;;;5091430;28;20178;-65
2021/05/01 05:28:42;;;;;;;4.60;2.40;;;5.10;99.90;;;;;;5094493;28;20169;-65
2021/05/01 05:31:08;;;;;;;9.13;3.25;;;5.10;99.90;;;;;;5098177;28;20739;-65
2021/05/01 05:33:34;;;;;;;8.18;2.45;;;5.20;99.90;;;;;;5091706;28;20176;-65
2021/05/01 05:36:00;;;;;;;6.43;3.10;;;5.30;99.90;;;;;;5092124;28;20688;-65
2021/05/01 05:38:26;;;;;;;5.43;2.78;;;5.40;99.90;;;;;;5095986;28;20169;-64
2021/05/01 05:40:52;;;;;;;5.00;2.67;;;5.50;99.90;;;;;;5099528;28;20213;-64
2021/05/01 05:43:19;;;;;;;5.35;2.70;;;5.70;99.90;;;;;;5096069;28;20545;-64
2021/05/01 05:45:47;;;;;;;4.85;2.45;;;5.90;99.90;;;;;;5091159;28;20169;-64
2021/05/01 05:48:13;;;;;;;4.65;2.58;;;6.10;99.90;;;;;;5095596;28;20195;-65
2021/05/01 05:50:39;;;;;;;6.00;3.10;;;6.20;99.90;;;;;;5097377;28;20539;-64
2021/05/01 05:53:05;;;;;;;9.80;2.75;;;6.30;99.90;;;;;;5093303;28;20170;-65
2021/05/01 05:55:31;;;;;;;7.25;2.75;;;6.50;99.90;;;;;;5092800;28;20181;-65
2021/05/01 05:57:57;;;;;;;5.00;2.70;;;6.60;99.90;;;;;;5092968;28;20176;-65
2021/05/01 06:00:24;;;;;;;6.70;3.13;;;6.80;99.90;;;;;;5089087;28;20707;-65
2021/05/01 06:02:52;;;;;;;5.18;3.08;;;6.80;99.90;;;;;;5088450;28;20649;-66
2021/05/01 06:05:32;;;;;;;3.95;2.60;;;6.90;99.90;;;;;;5091841;28;20185;-65
2021/05/01 06:07:59;;;;;;;5.72;2.70;;;6.90;99.90;;;;;;5092408;28;20161;-65
2021/05/01 06:10:26;;;;;;;3.88;2.35;;;7.10;99.90;;;;;;5090066;28;20203;-65
2021/05/01 06:12:52;;;;;;;8.15;2.58;;;7.20;99.90;;;;;;5090941;28;20169;-65
2021/05/01 06:15:18;;;;;;;6.85;2.88;;;7.30;99.90;;;;;;5094291;28;20181;-65
2021/05/01 06:17:46;;;;;;;6.70;2.83;;;7.40;99.90;;;;;;5094646;28;20173;-65
2021/05/01 06:20:12;;;;;;;4.00;2.20;;;7.60;99.90;;;;;;5073707;28;20193;-64
2021/05/01 06:22:39;;;;;;;7.82;2.20;;;7.80;99.90;;;;;;5090979;28;20193;-65
2021/05/01 06:25:06;;;;;;;4.55;2.03;;;8.10;99.90;;;;;;5089574;28;20180;-65
2021/05/01 06:27:32;;;;;;;4.60;2.00;;;8.30;99.90;;;;;;5092352;28;20178;-65
2021/05/01 06:29:58;;;;;;;9.05;1.70;;;8.50;99.90;;;;;;5090593;28;20555;-65
2021/05/01 06:32:24;;;;;;;2.50;1.33;;;8.70;99.90;;;;;;5088754;28;20207;-66
2021/05/01 06:34:55;;;;;;;7.05;2.08;;;8.60;99.90;;;;;;5090327;28;20216;-65
2021/05/01 06:37:22;;;;;;;2.75;1.80;;;8.80;99.90;;;;;;5091594;28;20181;-66
2021/05/01 06:39:49;;;;;;;2.75;1.45;;;8.80;99.90;;;;;;5091741;28;20216;-65
2021/05/01 06:42:36;;;;;;;3.90;1.42;;;9.00;99.90;;;;;;5091631;28;20169;-66
2021/05/01 06:45:09;;;;;;;3.40;0.82;;;9.00;99.30;;;;;;5090565;28;20193;-65
2021/05/01 06:47:37;;;;;;;1.75;0.70;;;8.90;91.80;;;;;;5090717;28;20177;-66
2021/05/01 06:50:08;;;;;;;1.00;0.70;;;8.90;88.20;;;;;;5091009;28;20169;-65
2021/05/01 06:52:41;;;;;;;2.80;0.85;;;8.90;90.20;;;;;;5093192;28;20189;-64
2021/05/01 06:55:08;;;;;;;2.75;0.90;;;9.00;90.60;;;;;;5095259;28;20177;-65
2021/05/01 06:57:37;;;;;;;1.30;0.90;;;9.20;91.80;;;;;;5096333;28;20181;-65
2021/05/01 07:00:06;;;;;;;2.08;1.10;;;9.40;93.60;;;;;;5091408;28;20227;-66
2021/05/01 07:02:39;;;;;;;4.47;1.10;;;9.60;93.00;;;;;;5091512;28;20650;-66
2021/05/01 07:05:06;;;;;;;1.58;0.85;;;9.60;93.90;;;;;;5090023;28;20170;-66
2021/05/01 07:07:32;;;;;;;1.10;0.80;;;9.80;93.70;;;;;;5090637;28;20173;-65
2021/05/01 07:09:58;;;;;;;4.03;0.98;;;9.90;92.80;;;;;;5091463;28;20549;-65
2021/05/01 07:12:25;;;;;;;3.53;0.80;;;10.10;91.50;;;;;;5090701;28;20176;-66
2021/05/01 07:14:51;;;;;;;6.40;1.05;;;10.30;90.40;;;;;;5090603;28;20944;-65
2021/05/01 07:17:17;;;;;;;1.25;0.82;;;10.50;88.90;;;;;;5091961;28;20185;-65
2021/05/01 07:19:44;;;;;;;1.27;0.90;;;10.70;86.50;;;;;;5094966;28;20225;-65
2021/05/01 07:22:13;;;;;;;1.83;1.10;;;10.70;83.10;;;;;;5093364;28;20195;-65
2021/05/01 07:24:39;;;;;;;2.47;1.00;;;10.70;81.70;;;;;;5093864;28;20181;-65
2021/05/01 07:27:05;;;;;;;3.40;1.10;;;10.40;78.50;;;;;;5095123;28;20173;-65
2021/05/01 07:29:37;;;;;;;1.67;1.10;;;10.70;82.90;;;;;;5093636;28;20173;-66
2021/05/01 07:32:04;;;;;;;0.85;0.70;;;11.00;79.80;;;;;;5093657;28;20212;-66
2021/05/01 07:34:30;;;;;;;1.15;0.70;;;10.90;67.40;;;;;;5094669;28;20221;-65
2021/05/01 07:36:56;;;;;;;1.00;0.50;;;10.90;60.50;;;;;;5093186;28;20185;-65
2021/05/01 07:39:24;;;;;;;1.75;0.82;;;11.10;57.40;;;;;;5093539;28;20173;-65
2021/05/01 07:41:56;;;;;;;3.58;0.80;;;10.80;60.00;;;;;;5094978;28;20204;-65
2021/05/01 07:44:27;;;;;;;1.10;0.70;;;11.10;62.90;;;;;;5094347;28;20173;-65
2021/05/01 07:46:53;;;;;;;1.95;1.10;;;11.30;60.70;;;;;;5094401;28;20169;-65
2021/05/01 07:49:19;;;;;;;2.50;0.88;;;11.10;59.20;;;;;;5093425;28;20181;-65
2021/05/01 07:51:45;;;;;;;1.35;0.82;;;11.30;58.00;;;;;;5094482;28;20192;-65
2021/05/01 07:54:12;;;;;;;2.50;0.70;;;11.90;59.40;;;;;;5094554;28;20188;-66
2021/05/01 07:56:39;;;;;;;1.05;0.60;;;12.70;61.00;;;;;;5095183;28;20270;-62
2021/05/01 07:59:05;;;;;;;0.57;0.50;;;13.60;56.70;;;;;;5094859;28;20221;-65
2021/05/01 08:01:32;;;;;;;0.75;0.60;;;13.80;56.10;;;;;;5094716;28;20216;-68
2021/05/01 08:03:58;;;;;;;1.70;0.82;;;14.40;55.00;;;;;;5093164;28;20641;-68
2021/05/01 08:06:24;;;;;;;1.55;0.77;;;14.90;52.20;;;;;;5092924;28;20192;-67
2021/05/01 08:08:50;;;;;;;2.90;0.68;;;15.00;50.70;;;;;;5093007;28;20181;-68
2021/05/01 08:11:16;;;;;;;5.57;0.75;;;15.40;51.70;;;;;;5094053;28;20545;-77
2021/05/01 08:13:42;;;;;;;4.85;0.77;;;14.70;47.20;;;;;;5093873;28;20180;-69
2021/05/01 08:16:08;;;;;;;1.45;0.50;;;15.00;50.50;;;;;;5093646;28;20169;-68
2021/05/01 08:18:35;;;;;;;1.42;0.70;;;15.80;48.60;;;;;;5092108;28;20184;-69
2021/05/01 08:21:01;;;;;;;0.50;0.50;;;15.20;48.10;;;;;;5093447;28;20224;-68
2021/05/01 08:23:32;;;;;;;1.35;0.47;;;15.50;46.80;;;;;;5092375;28;20186;-68
2021/05/01 08:25:59;;;;;;;2.00;0.60;;;14.80;46.80;;;;;;5093430;28;20185;-69
2021/05/01 08:28:25;;;;;;;1.33;0.65;;;13.90;47.90;;;;;;5092506;28;20177;-68
2021/05/01 08:30:51;;;;;;;1.55;0.70;;;13.50;46.80;;;;;;5093340;28;20220;-71
2021/05/01 08:33:18;;;;;;;1.70;0.63;;;13.90;48.40;;;;;;5092689;28;20178;-68
2021/05/01 08:35:44;;;;;;;1.48;0.60;;;14.80;48.90;;;;;;5092002;28;20563;-68
2021/05/01 08:38:10;;;;;;;3.33;0.70;;;15.20;47.00;;;;;;5092139;28;20180;-74
2021/05/01 08:40:37;;;;;;;1.00;0.60;;;13.90;48.10;;;;;;5094224;28;20208;-68
2021/05/01 08:43:03;;;;;;;1.00;0.65;;;13.40;49.20;;;;;;5094201;28;20226;-69
2021/05/01 08:45:31;;;;;;;1.75;0.60;;;13.60;50.30;;;;;;5094021;28;20192;-69
2021/05/01 08:47:59;;;;;;;3.92;0.68;;;14.20;49.50;;;;;;5093500;28;20177;-69
2021/05/01 08:50:40;;;;;;;1.95;0.70;;;14.10;48.80;;;;;;5091840;28;20173;-70
2021/05/01 08:53:07;;;;;;;1.42;0.57;;;13.40;50.70;;;;;;5071199;28;20165;-72
2021/05/01 08:55:35;;;;;;;4.90;0.60;;;13.60;51.50;;;;;;5092333;28;20169;-69
2021/05/01 08:58:03;;;;;;;2.45;0.60;;;13.70;52.60;;;;;;5091291;28;20200;-69
2021/05/01 09:00:29;;;;;;;4.43;0.88;;;14.40;53.90;;;;;;5093010;28;20212;-69
2021/05/01 09:02:56;;;;;;;1.42;0.60;;;14.90;53.60;;;;;;5093519;28;20185;-70
2021/05/01 09:05:24;;;;;;;1.58;0.70;;;15.50;55.10;;;;;;5091107;28;20169;-71
2021/05/01 09:07:50;;;;;;;1.00;0.70;;;15.30;54.30;;;;;;5091666;28;20169;-73
2021/05/01 09:10:16;;;;;;;4.63;0.73;;;15.90;53.30;;;;;;5091556;28;20181;-70
2021/05/01 09:12:48;;;;;;;3.05;0.70;;;16.70;53.90;;;;;;5092637;28;20174;-56
2021/05/01 09:15:17;;;;;;;0.80;0.63;;;16.50;54.80;;;;;;5092618;28;20168;-47
2021/05/01 09:17:43;;;;;;;3.28;0.90;;;14.40;56.80;;;;;;5092756;28;20176;-48
2021/05/01 09:20:10;;;;;;;1.58;1.00;;;14.10;60.30;;;;;;5074636;28;20217;-48
2021/05/01 09:22:51;;;;;;;1.88;0.70;;;14.20;62.90;;;;;;5092967;28;20637;-46
2021/05/01 09:25:17;;;;;;;3.05;1.00;;;13.90;65.00;;;;;;5092788;28;20157;-47
2021/05/01 09:27:57;;;;;;;2.05;0.90;;;14.80;65.60;;;;;;5092487;28;20527;-48
2021/05/01 09:30:23;;;;;;;5.30;1.00;;;15.10;60.00;;;;;;5091051;28;20181;-46
2021/05/01 09:32:49;;;;;;;2.05;0.70;;;15.00;58.60;;;;;;5074382;28;20173;-50
2021/05/01 09:35:15;;;;;;;3.95;0.60;;;16.30;56.80;;;;;;5071870;28;20209;-47
2021/05/01 09:37:41;;;;;;;3.28;0.93;;;16.30;55.30;;;;;;5091407;28;20243;-47
2021/05/01 09:40:08;;;;;;;1.80;0.70;;;16.00;54.50;;;;;;5072756;28;20193;-47
2021/05/01 09:42:35;;;;;;;2.92;0.90;;;16.00;55.30;;;;;;5089060;28;20557;-50
2021/05/01 09:45:18;;;;;;;1.85;0.70;;;16.00;54.40;;;;;;5091406;28;20673;-47
2021/05/01 09:47:51;;;;;;;2.22;0.73;;;15.50;53.70;;;;;;5090942;28;20652;-47
2021/05/01 09:50:22;;;;;;;1.50;0.70;;;16.10;52.40;;;;;;5090481;28;20193;-47
2021/05/01 09:53:02;;;;;;;1.15;0.55;;;15.00;50.50;;;;;;5092317;28;20188;-48
2021/05/01 09:55:46;;;;;;;1.60;0.63;;;15.50;52.20;;;;;;5091650;28;20177;-47
2021/05/01 09:58:29;;;;;;;4.40;0.70;;;16.30;48.50;;;;;;5092008;28;20176;-47
2021/05/01 10:01:17;;;;;;;1.33;0.68;;;16.40;49.50;;;;;;5091903;28;20533;-47
2021/05/01 10:03:43;;;;;;;2.25;0.50;;;16.30;48.00;;;;;;5091762;28;20173;-50
2021/05/01 10:06:12;;;;;;;3.33;1.25;;;16.10;47.90;;;;;;5090874;28;20173;-48
2021/05/01 10:08:38;;;;;;;2.97;1.23;;;16.50;46.80;;;;;;5090750;28;20169;-47
2021/05/01 10:11:12;;;;;;;2.88;0.77;;;16.00;48.50;;;;;;5090418;28;20169;-48
2021/05/01 10:14:05;;;;;;;1.33;0.60;;;15.40;49.20;;;;;;5090450;28;20177;-41
2021/05/01 10:16:31;;;;;;;2.10;0.60;;;15.60;48.30;;;;;;5088520;28;20192;-41
2021/05/01 10:19:11;;;;;;;4.20;0.70;;;15.90;48.50;;;;;;5090635;28;20188;-41
2021/05/01 10:21:38;;;;;;;1.00;0.57;;;15.60;48.40;;;;;;5092323;28;20673;-41
2021/05/01 10:24:05;;;;;;;0.57;0.40;;;15.40;49.10;;;;;;5091432;28;20184;-42
2021/05/01 10:26:48;;;;;;;2.55;0.70;;;16.80;50.40;;;;;;5092278;28;20550;-42
2021/05/01 10:29:32;;;;;;;1.25;0.60;;;17.60;48.30;;;;;;5090455;28;20173;-42
2021/05/01 10:31:58;;;;;;;1.10;0.70;;;19.30;45.80;;;;;;5089578;28;20166;-42
2021/05/01 10:34:25;;;;;;;3.28;0.88;;;17.30;48.50;;;;;;5089908;28;20217;-42
2021/05/01 10:36:58;;;;;;;1.13;1.00;;;15.80;50.10;;;;;;5091096;28;20181;-41
2021/05/01 10:39:24;;;;;;;1.08;0.60;;;16.90;50.30;;;;;;5090232;28;20162;-42
2021/05/01 10:41:55;;;;;;;3.00;0.80;;;17.50;49.80;;;;;;5071573;28;20212;-41
2021/05/01 10:44:21;;;;;;;1.73;0.80;;;18.20;51.40;;;;;;5089819;28;20181;-42
2021/05/01 10:46:47;;;;;;;1.23;0.80;;;17.90;48.70;;;;;;5088968;28;20197;-41
2021/05/01 10:49:14;;;;;;;2.50;1.00;;;16.50;51.50;;;;;;5087691;28;20173;-43
2021/05/01 10:51:44;;;;;;;3.55;0.90;;;17.90;52.60;;;;;;5093366;28;20180;-41
2021/05/01 10:54:11;;;;;;;1.25;0.80;;;16.90;51.90;;;;;;5095550;28;20648;-41
2021/05/01 10:56:43;;;;;;;3.95;0.60;;;16.60;52.60;;;;;;5095317;28;20181;-41
2021/05/01 10:59:14;;;;;;;2.95;0.80;;;16.30;51.90;;;;;;5091642;28;20161;-43
2021/05/01 11:01:47;;;;;;;3.55;0.98;;;16.60;51.60;;;;;;5096003;28;20206;-42
2021/05/01 11:04:29;;;;;;;11.45;1.30;;;16.70;50.30;;;;;;5094299;28;20188;-43
2021/05/01 11:07:18;;;;;;;1.15;0.90;;;16.00;51.60;;;;;;5096040;28;20176;-42
2021/05/01 11:09:48;;;;;;;1.65;0.90;;;15.90;50.10;;;;;;5089531;28;20166;-42
2021/05/01 11:12:21;;;;;;;2.25;0.88;;;15.30;49.80;;;;;;5095728;28;20193;-42
2021/05/01 11:14:54;;;;;;;1.48;0.60;;;14.70;52.40;;;;;;5096144;28;20178;-42
2021/05/01 11:17:32;;;;;;;3.40;0.95;;;15.40;53.90;;;;;;5095373;28;21438;-43
2021/05/01 11:20:08;;;;;;;2.47;1.27;;;15.60;53.20;;;;;;5089447;28;20625;-42
2021/05/01 11:22:36;;;;;;;2.65;1.40;;;15.60;58.50;;;;;;5094165;28;20542;-42
2021/05/01 11:25:06;;;;;;;2.50;1.30;;;14.80;62.70;;;;;;5093173;28;20166;-43
2021/05/01 11:27:32;;;;;;;3.85;1.30;;;14.90;63.90;;;;;;5094955;28;20173;-42
2021/05/01 11:29:58;;;;;;;2.33;1.35;;;14.70;62.70;;;;;;5093181;28;20653;-42
2021/05/01 11:32:26;;;;;;;5.13;1.30;;;14.50;64.30;;;;;;5094983;28;20211;-42
2021/05/01 11:35:02;;;;;;;2.30;1.45;;;13.90;65.80;;;;;;5094710;28;20213;-41
2021/05/01 11:37:28;;;;;;;2.08;1.40;;;13.70;70.50;;;;;;5093728;28;20162;-42
2021/05/01 11:39:54;;;;;;;2.72;1.50;;;13.20;68.60;;;;;;5076596;28;20177;-41
2021/05/01 11:42:22;;;;;;;3.40;1.15;;;13.20;67.70;;;;;;5093323;28;20227;-41
2021/05/01 11:44:49;;;;;;;3.00;1.30;;;12.60;69.30;;;;;;5093605;28;20185;-41
2021/05/01 11:47:15;;;;;;;1.30;1.05;;;12.80;70.30;;;;;;5076641;28;20185;-42
2021/05/01 11:49:41;;;;;;;5.13;1.27;;;12.80;69.50;;;;;;5092094;28;20176;-41
2021/05/01 11:52:18;;;;;;;12.35;1.30;;;12.90;70.10;;;;;;5076791;28;20184;-41
2021/05/01 11:54:55;;;;;;;2.42;1.50;;;13.20;69.90;;;;;;5093247;28;20184;-42
2021/05/01 11:57:28;;;;;;;2.00;1.10;;;13.20;69.00;;;;;;5092302;28;20169;-42
2021/05/01 11:59:54;;;;;;;2.10;1.20;;;13.90;66.10;;;;;;5085606;28;20172;-42
2021/05/01 12:02:22;;;;;;;2.60;1.20;;;14.40;62.90;;;;;;5092207;28;20197;-42
2021/05/01 12:04:54;;;;;;;1.23;1.00;;;14.40;63.30;;;;;;5092673;28;20186;-42
2021/05/01 12:07:32;;;;;;;2.45;0.77;;;14.70;58.40;;;;;;5094256;28;20543;-42
2021/05/01 12:10:03;;;;;;;3.25;0.60;;;14.60;54.70;;;;;;5094397;28;20161;-41
2021/05/01 12:12:29;;;;;;;0.90;0.60;;;13.90;47.60;;;;;;5088607;28;20170;-42
2021/05/01 12:15:01;;;;;;;3.47;0.82;;;13.60;50.30;;;;;;5074655;28;20185;-42
2021/05/01 12:17:31;;;;;;;4.00;1.10;;;13.50;53.00;;;;;;5091627;28;20189;-42
2021/05/01 12:20:08;;;;;;;4.88;0.95;;;14.30;50.70;;;;;;5089961;28;20181;-42
2021/05/01 12:22:34;;;;;;;3.83;0.98;;;14.60;50.60;;;;;;5094411;28;20217;-41
2021/05/01 12:25:00;;;;;;;2.65;1.10;;;15.00;50.00;;;;;;5094379;28;20181;-41
2021/05/01 12:27:49;;;;;;;3.55;1.17;;;14.30;50.70;;;;;;5094071;28;20169;-41
2021/05/01 12:30:40;;;;;;;1.42;0.98;;;14.80;53.50;;;;;;5094047;28;20669;-43
2021/05/01 12:33:28;;;;;;;2.03;0.90;;;14.70;50.60;;;;;;5093558;28;20533;-42
2021/05/01 12:35:55;;;;;;;1.70;0.80;;;15.30;51.00;;;;;;5091134;28;20569;-42
2021/05/01 12:38:23;;;;;;;2.65;0.80;;;15.20;45.40;;;;;;5092303;28;20193;-41
2021/05/01 12:40:50;;;;;;;2.17;0.77;;;15.30;44.70;;;;;;5092522;28;20225;-42
2021/05/01 12:43:45;;;;;;;3.83;0.60;;;16.10;44.30;;;;;;5094164;28;20200;-42
2021/05/01 12:46:23;;;;;;;1.52;0.70;;;16.00;38.80;;;;;;5092985;28;20205;-42
2021/05/01 12:48:53;;;;;;;3.13;0.77;;;15.50;41.00;;;;;;5094134;28;20232;-43
2021/05/01 12:51:24;;;;;;;3.83;0.80;;;15.30;40.40;;;;;;5093556;28;20232;-41
2021/05/01 12:53:51;;;;;;;4.13;0.80;;;14.60;42.20;;;;;;5093562;28;20176;-41
2021/05/01 12:56:34;;;;;;;3.15;1.38;;;13.80;44.40;;;;;;5092612;28;20170;-42
2021/05/01 12:59:21;;;;;;;2.63;1.10;;;13.40;48.10;;;;;;5092530;28;20165;-41